Flight Track Log - Related Links

Times and Time Zones

All times are in EDT time to prevent confusion due to time zone crossing. See the N839CA flight status page for this flight to view local times or setup timezone preferences in your user account.


Time Position Orientation Groundspeed Altitude Reporting Facility
EDT Latitude Longitude Course Direction KTS MPH feet Rate Location/Type
Mon 09:23:55 PM 41.9269 -72.6800 133° Southeast 126 145 800  Level Boston Center
Mon 09:25:02 PM 41.9000 -72.6408 133° Southeast 136 157 3,000 1,465 Climbing Boston Center
Mon 09:26:02 PM 41.8583 -72.6603 199° South 190 219 3,900 942 Climbing Boston Center
Mon 09:27:03 PM 41.8125 -72.7075 218° Southwest 206 237 4,900 984 Climbing Boston Center
Mon 09:28:04 PM 41.7581 -72.7600 216° Southwest 225 259 5,900 545 Climbing Boston Center
Mon 09:29:04 PM 41.7036 -72.8100 214° Southwest 236 272 6,000 34 Climbing Boston Center
Mon 09:30:58 PM 41.6000 -72.9000 213° Southwest 244 281 6,000  Level New York TRACON
Mon 09:31:58 PM 41.5500 -72.9500 217° Southwest 246 283 6,000  Level New York TRACON
Mon 09:32:52 PM 41.5000 -73.0000 217° Southwest 247 284 6,000  Level New York TRACON
Mon 09:33:58 PM 41.4500 -73.0833 231° Southwest 250 288 6,000  Level New York TRACON
Mon 09:34:52 PM 41.4333 -73.1667 255° West 246 283 6,000  Level New York TRACON
Mon 09:35:52 PM 41.4000 -73.2500 242° Southwest 249 287 6,000  Level New York TRACON
Mon 09:36:52 PM 41.3667 -73.3333 242° Southwest 249 287 6,000  Level New York TRACON
Mon 09:37:52 PM 41.3333 -73.4000 236° Southwest 246 283 6,000  Level New York TRACON
Mon 09:38:52 PM 41.3167 -73.4833 255° West 250 288 6,000  Level New York TRACON
Mon 09:39:52 PM 41.2833 -73.5667 242° Southwest 249 287 6,000  Level New York TRACON
Mon 09:40:52 PM 41.2667 -73.6667 258° West 257 296 6,000  Level New York TRACON
Mon 09:41:58 PM 41.2667 -73.7667 270° West 252 290 6,000  Level New York TRACON
Mon 09:42:52 PM 41.2500 -73.8500 255° West 255 293 6,000 -421 Level New York TRACON
Mon 09:43:52 PM 41.2500 -73.9500 270° West 253 291 5,200 -476 Descending New York TRACON
Mon 09:44:58 PM 41.2167 -74.0333 242° Southwest 245 282 5,000 -100 Descending New York TRACON
Mon 09:45:52 PM 41.1667 -74.0500 194° South 232 267 5,000  Level New York TRACON
Mon 09:46:52 PM 41.1167 -74.1167 225° Southwest 246 283 5,000  Level New York TRACON
Mon 09:47:52 PM 41.0833 -74.1833 236° Southwest 247 284 5,000  Level New York TRACON
Mon 09:48:52 PM 41.0167 -74.1667 169° South 237 273 5,000  Level New York TRACON
Mon 09:49:52 PM 40.9667 -74.1500 166° South 211 243 5,000 -400 Level New York TRACON
Mon 09:50:52 PM 40.9167 -74.1000 143° Southeast 192 221 4,200 -952 Descending New York TRACON
Mon 09:51:58 PM 40.8667 -74.0833 166° South 174 200 3,000 -650 Descending New York TRACON
Mon 09:52:52 PM 40.8333 -74.0833 180° South 172 198 2,900 -526 Descending New York TRACON
Mon 09:53:52 PM 40.7833 -74.1000 194° South 166 191 2,000 -850 Descending New York TRACON
Mon 09:54:52 PM 40.7500 -74.1333 217° Southwest 142 163 1,200 -750 Descending New York TRACON
Mon 09:55:52 PM 40.7167 -74.1500 201° Southwest 136 157 500 -700 Descending New York TRACON
Mon 09:57:00 PM 40.6925 -74.1687 143° Southeast  Level Estimated

Login

Don't have an account? Register now (free) for customized features, flight alerts, and more!